GAP2986 RPVA-RPLL
Flight info
| Callsign | GAP2986 |
|---|---|
| Flight time | 1h 21m |
| Altitude | 32000 |
| Route | MALAG5R MALAG W9 AKDAP AKDAP3R |
| Aircraft | A320/M-SDE3FGHIRWY/LB1 |
Departure
| Time | 2026-05-04 10:16 |
|---|---|
| Airport | Daniel Z. Romualdez Airport (RPVA) |
Arrival
| Time | 2026-05-04 11:37 |
|---|---|
| Airport | Ninoy Aquino International Airport (RPLL) |
| Time | Latitude | Longitude | Altitude | Speed | Heading |
|---|---|---|---|---|---|
| 2026-05-04 10:13 | 11.22040 | 125.02727 | 22 ft | 12 kts | 184° |
| 2026-05-04 10:13 | 11.21949 | 125.02720 | 22 ft | 13 kts | 184° |
| 2026-05-04 10:13 | 11.21867 | 125.02723 | 22 ft | 9 kts | 162° |
| 2026-05-04 10:13 | 11.21817 | 125.02731 | 22 ft | 5 kts | 199° |
| 2026-05-04 10:14 | 11.21810 | 125.02717 | 22 ft | 2 kts | 297° |
| 2026-05-04 10:14 | 11.21824 | 125.02712 | 22 ft | 2 kts | 358° |
| 2026-05-04 10:16 | 11.26878 | 125.03019 | 1884 ft | 170 kts | 7° |
| 2026-05-04 10:16 | 11.28104 | 125.03109 | 2214 ft | 183 kts | 7° |
| 2026-05-04 10:16 | 11.29422 | 125.03205 | 2501 ft | 198 kts | 6° |
| 2026-05-04 10:16 | 11.30875 | 125.03308 | 2766 ft | 217 kts | 6° |
| 2026-05-04 10:17 | 11.32458 | 125.03403 | 3046 ft | 237 kts | 0° |
| 2026-05-04 10:17 | 11.34098 | 125.02944 | 3348 ft | 261 kts | 329° |
| 2026-05-04 10:19 | 11.43818 | 124.93324 | 8042 ft | 288 kts | 317° |
| 2026-05-04 10:19 | 11.45256 | 124.91901 | 8706 ft | 292 kts | 317° |
| 2026-05-04 10:19 | 11.46717 | 124.90454 | 9365 ft | 296 kts | 317° |
| 2026-05-04 10:19 | 11.48203 | 124.88979 | 9991 ft | 300 kts | 317° |
| 2026-05-04 10:20 | 11.49694 | 124.87499 | 10585 ft | 304 kts | 317° |
| 2026-05-04 10:20 | 11.51213 | 124.85990 | 11184 ft | 309 kts | 317° |
| 2026-05-04 10:20 | 11.52781 | 124.84437 | 11751 ft | 313 kts | 317° |
| 2026-05-04 10:20 | 11.54337 | 124.82893 | 12279 ft | 317 kts | 317° |
| 2026-05-04 10:21 | 11.55938 | 124.81306 | 12813 ft | 322 kts | 318° |
| 2026-05-04 10:21 | 11.57585 | 124.79748 | 13298 ft | 326 kts | 322° |
| 2026-05-04 10:21 | 11.59391 | 124.78301 | 13572 ft | 337 kts | 327° |
| 2026-05-04 10:21 | 11.61368 | 124.76939 | 13786 ft | 350 kts | 329° |
| 2026-05-04 10:22 | 11.65623 | 124.74102 | 14222 ft | 375 kts | 329° |
| 2026-05-04 10:22 | 11.67824 | 124.72632 | 14424 ft | 386 kts | 329° |
| 2026-05-04 10:22 | 11.70106 | 124.71104 | 14616 ft | 397 kts | 329° |
| 2026-05-04 10:23 | 11.72447 | 124.69531 | 14792 ft | 407 kts | 328° |
| 2026-05-04 10:23 | 11.74846 | 124.67919 | 14988 ft | 415 kts | 328° |
| 2026-05-04 10:25 | 11.92054 | 124.56309 | 17507 ft | 429 kts | 328° |
| 2026-05-04 10:25 | 11.94561 | 124.54619 | 17835 ft | 430 kts | 328° |
| 2026-05-04 10:25 | 11.97036 | 124.52947 | 18140 ft | 432 kts | 328° |
| 2026-05-04 10:25 | 11.99557 | 124.51246 | 18451 ft | 434 kts | 328° |
| 2026-05-04 10:26 | 12.02093 | 124.49533 | 18761 ft | 435 kts | 328° |
| 2026-05-04 10:26 | 12.04636 | 124.47816 | 19061 ft | 437 kts | 328° |
| 2026-05-04 10:26 | 12.07176 | 124.46099 | 19334 ft | 439 kts | 328° |
| 2026-05-04 10:26 | 12.09742 | 124.44363 | 19613 ft | 441 kts | 328° |
| 2026-05-04 10:27 | 12.12287 | 124.42642 | 19894 ft | 443 kts | 328° |
| 2026-05-04 10:27 | 12.14864 | 124.40899 | 20174 ft | 444 kts | 328° |
| 2026-05-04 10:27 | 12.17443 | 124.39153 | 20446 ft | 445 kts | 328° |
| 2026-05-04 10:27 | 12.20036 | 124.37398 | 20722 ft | 446 kts | 328° |
| 2026-05-04 10:28 | 12.22600 | 124.35661 | 21056 ft | 445 kts | 328° |
| 2026-05-04 10:28 | 12.25198 | 124.33901 | 21432 ft | 443 kts | 327° |
| 2026-05-04 10:28 | 12.27750 | 124.32171 | 21782 ft | 442 kts | 327° |
| 2026-05-04 10:28 | 12.30316 | 124.30430 | 22124 ft | 440 kts | 327° |
| 2026-05-04 10:29 | 12.32857 | 124.28707 | 22454 ft | 440 kts | 327° |
| 2026-05-04 10:29 | 12.35427 | 124.26965 | 22774 ft | 440 kts | 327° |
| 2026-05-04 10:29 | 12.37942 | 124.25182 | 23079 ft | 440 kts | 324° |
| 2026-05-04 10:29 | 12.40379 | 124.23312 | 23390 ft | 440 kts | 323° |
| 2026-05-04 10:30 | 12.42824 | 124.21408 | 23714 ft | 440 kts | 323° |
| 2026-05-04 10:30 | 12.45252 | 124.19510 | 24052 ft | 439 kts | 323° |
| 2026-05-04 10:30 | 12.47694 | 124.17601 | 24404 ft | 438 kts | 323° |
| 2026-05-04 10:30 | 12.50108 | 124.15713 | 24748 ft | 438 kts | 323° |
| 2026-05-04 10:31 | 12.52518 | 124.13828 | 25076 ft | 437 kts | 323° |
| 2026-05-04 10:31 | 12.54953 | 124.11925 | 25420 ft | 436 kts | 323° |
| 2026-05-04 10:32 | 12.69351 | 124.00663 | 27439 ft | 432 kts | 323° |
| 2026-05-04 10:33 | 12.71735 | 123.98796 | 27756 ft | 432 kts | 323° |
| 2026-05-04 10:33 | 12.74124 | 123.96925 | 28077 ft | 431 kts | 323° |
| 2026-05-04 10:33 | 12.76503 | 123.95061 | 28400 ft | 431 kts | 323° |
| 2026-05-04 10:33 | 12.78903 | 123.93182 | 28722 ft | 431 kts | 323° |
| 2026-05-04 10:34 | 12.81267 | 123.91330 | 29065 ft | 430 kts | 323° |
| 2026-05-04 10:34 | 12.83628 | 123.89481 | 29429 ft | 428 kts | 322° |
| 2026-05-04 10:34 | 12.86006 | 123.87618 | 29808 ft | 427 kts | 322° |
| 2026-05-04 10:34 | 12.88346 | 123.85783 | 30175 ft | 425 kts | 322° |
| 2026-05-04 10:35 | 12.90705 | 123.83933 | 30530 ft | 424 kts | 322° |
| 2026-05-04 10:35 | 12.93055 | 123.82089 | 30870 ft | 424 kts | 322° |
| 2026-05-04 10:35 | 12.95392 | 123.80254 | 31232 ft | 422 kts | 322° |
| 2026-05-04 10:35 | 12.97712 | 123.78432 | 31588 ft | 421 kts | 321° |
| 2026-05-04 10:36 | 13.00058 | 123.76589 | 31862 ft | 421 kts | 321° |
| 2026-05-04 10:36 | 13.02378 | 123.74764 | 31881 ft | 420 kts | 321° |
| 2026-05-04 10:36 | 13.07008 | 123.71123 | 31893 ft | 419 kts | 321° |
| 2026-05-04 10:37 | 13.11601 | 123.67485 | 31892 ft | 418 kts | 320° |
| 2026-05-04 10:37 | 13.16076 | 123.63638 | 31895 ft | 417 kts | 319° |
| 2026-05-04 10:39 | 13.29936 | 123.51597 | 31891 ft | 456 kts | 319° |
| 2026-05-04 10:39 | 13.32382 | 123.49473 | 31892 ft | 461 kts | 319° |
| 2026-05-04 10:40 | 13.37348 | 123.45157 | 31899 ft | 471 kts | 319° |
| 2026-05-04 10:40 | 13.42391 | 123.40766 | 31906 ft | 479 kts | 319° |
| 2026-05-04 10:41 | 13.47477 | 123.36337 | 31904 ft | 484 kts | 319° |
| 2026-05-04 10:41 | 13.52524 | 123.31745 | 31899 ft | 483 kts | 314° |
| 2026-05-04 10:42 | 13.57014 | 123.26640 | 31887 ft | 482 kts | 307° |
| 2026-05-04 10:42 | 13.60859 | 123.20993 | 31876 ft | 481 kts | 300° |
| 2026-05-04 10:43 | 13.64018 | 123.14945 | 31875 ft | 480 kts | 295° |
| 2026-05-04 10:45 | 13.75721 | 122.90325 | 31876 ft | 480 kts | 295° |
| 2026-05-04 10:45 | 13.78655 | 122.84155 | 31874 ft | 480 kts | 295° |
| 2026-05-04 10:46 | 13.81583 | 122.77994 | 31879 ft | 480 kts | 295° |
| 2026-05-04 10:46 | 13.84522 | 122.71828 | 31897 ft | 481 kts | 295° |
| 2026-05-04 10:47 | 13.87474 | 122.65623 | 31909 ft | 480 kts | 295° |
| 2026-05-04 10:47 | 13.90392 | 122.59473 | 31910 ft | 480 kts | 295° |
| 2026-05-04 10:49 | 14.02073 | 122.34795 | 31895 ft | 480 kts | 294° |
| 2026-05-04 10:50 | 14.04977 | 122.28646 | 31575 ft | 473 kts | 295° |
| 2026-05-04 10:51 | 14.14893 | 122.07601 | 28045 ft | 470 kts | 295° |
| 2026-05-04 10:52 | 14.16328 | 122.04556 | 27047 ft | 472 kts | 295° |
| 2026-05-04 10:52 | 14.17745 | 122.01547 | 26189 ft | 470 kts | 295° |
| 2026-05-04 10:52 | 14.19154 | 121.98550 | 25595 ft | 463 kts | 295° |
| 2026-05-04 10:54 | 14.28151 | 121.78210 | 21331 ft | 433 kts | 294° |
| 2026-05-04 10:54 | 14.29347 | 121.75410 | 20744 ft | 430 kts | 294° |
| 2026-05-04 10:56 | 14.37623 | 121.56057 | 16550 ft | 415 kts | 294° |
| 2026-05-04 10:56 | 14.38775 | 121.53362 | 15934 ft | 414 kts | 294° |
| 2026-05-04 10:56 | 14.39935 | 121.50644 | 15324 ft | 412 kts | 295° |
| 2026-05-04 10:57 | 14.41088 | 121.47942 | 14728 ft | 410 kts | 295° |
| 2026-05-04 10:57 | 14.42220 | 121.45287 | 14145 ft | 407 kts | 295° |
| 2026-05-04 10:57 | 14.43352 | 121.42633 | 13579 ft | 403 kts | 295° |
| 2026-05-04 10:57 | 14.44480 | 121.39984 | 12982 ft | 400 kts | 295° |
| 2026-05-04 10:58 | 14.45594 | 121.37370 | 12400 ft | 397 kts | 295° |
| 2026-05-04 10:58 | 14.46689 | 121.34797 | 11821 ft | 394 kts | 295° |
| 2026-05-04 10:58 | 14.47781 | 121.32234 | 11350 ft | 386 kts | 295° |
| 2026-05-04 10:58 | 14.48686 | 121.29684 | 10966 ft | 377 kts | 282° |
| 2026-05-04 10:59 | 14.48614 | 121.27023 | 10730 ft | 365 kts | 255° |
| 2026-05-04 10:59 | 14.47631 | 121.24689 | 10530 ft | 352 kts | 241° |
| 2026-05-04 10:59 | 14.46445 | 121.22536 | 10327 ft | 341 kts | 240° |
| 2026-05-04 10:59 | 14.45269 | 121.20438 | 10121 ft | 329 kts | 240° |
| 2026-05-04 11:00 | 14.44148 | 121.18437 | 10003 ft | 317 kts | 240° |
| 2026-05-04 11:01 | 14.36799 | 121.05165 | 7740 ft | 298 kts | 240° |
| 2026-05-04 11:02 | 14.35785 | 121.03327 | 7407 ft | 296 kts | 240° |
| 2026-05-04 11:02 | 14.34765 | 121.01481 | 7092 ft | 295 kts | 240° |
| 2026-05-04 11:05 | 14.20612 | 120.75793 | 5928 ft | 293 kts | 240° |
| 2026-05-04 11:06 | 14.19612 | 120.73959 | 5907 ft | 293 kts | 240° |
| 2026-05-04 11:06 | 14.18624 | 120.72142 | 5899 ft | 293 kts | 240° |
| 2026-05-04 11:06 | 14.17626 | 120.70300 | 5906 ft | 293 kts | 240° |
| 2026-05-04 11:06 | 14.16639 | 120.68474 | 5909 ft | 293 kts | 240° |
| 2026-05-04 11:08 | 14.10757 | 120.55331 | 5887 ft | 283 kts | 284° |
| 2026-05-04 11:10 | 14.20089 | 120.50871 | 5912 ft | 220 kts | 52° |
| 2026-05-04 11:12 | 14.25994 | 120.59212 | 5903 ft | 201 kts | 55° |
| 2026-05-04 11:12 | 14.26819 | 120.60388 | 5910 ft | 201 kts | 55° |
| 2026-05-04 11:12 | 14.27635 | 120.61552 | 5880 ft | 201 kts | 55° |
| 2026-05-04 11:12 | 14.28457 | 120.62723 | 5780 ft | 200 kts | 55° |
| 2026-05-04 11:13 | 14.29271 | 120.63884 | 5671 ft | 199 kts | 55° |
| 2026-05-04 11:13 | 14.30086 | 120.65046 | 5541 ft | 199 kts | 55° |
| 2026-05-04 11:13 | 14.30893 | 120.66200 | 5417 ft | 198 kts | 56° |
| 2026-05-04 11:13 | 14.31641 | 120.67385 | 5271 ft | 198 kts | 59° |
| 2026-05-04 11:14 | 14.32348 | 120.68601 | 5062 ft | 198 kts | 59° |
| 2026-05-04 11:14 | 14.33042 | 120.69824 | 4834 ft | 197 kts | 60° |
| 2026-05-04 11:14 | 14.33733 | 120.71055 | 4593 ft | 196 kts | 60° |
| 2026-05-04 11:16 | 14.38036 | 120.78824 | 3003 ft | 167 kts | 60° |
| 2026-05-04 11:16 | 14.38609 | 120.79862 | 2923 ft | 167 kts | 61° |
| 2026-05-04 11:16 | 14.39190 | 120.80913 | 2918 ft | 168 kts | 61° |
| 2026-05-04 11:17 | 14.39767 | 120.81961 | 2918 ft | 167 kts | 61° |
| 2026-05-04 11:17 | 14.40343 | 120.83005 | 2944 ft | 167 kts | 60° |
| 2026-05-04 11:19 | 14.44308 | 120.90155 | 2107 ft | 163 kts | 60° |
| 2026-05-04 11:19 | 14.44868 | 120.91163 | 1911 ft | 162 kts | 62° |
| 2026-05-04 11:19 | 14.45419 | 120.92155 | 1702 ft | 154 kts | 61° |
| 2026-05-04 11:19 | 14.45937 | 120.93088 | 1533 ft | 144 kts | 60° |
| 2026-05-04 11:20 | 14.46430 | 120.93974 | 1352 ft | 142 kts | 61° |
| 2026-05-04 11:20 | 14.46920 | 120.94854 | 1171 ft | 141 kts | 63° |
| 2026-05-04 11:20 | 14.47407 | 120.95732 | 1003 ft | 140 kts | 61° |
| 2026-05-04 11:20 | 14.47891 | 120.96606 | 838 ft | 140 kts | 60° |
| 2026-05-04 11:22 | 14.51310 | 121.02872 | 1227 ft | 159 kts | 64° |
| 2026-05-04 11:22 | 14.51484 | 121.03195 | 1482 ft | 159 kts | 63° |
| 2026-05-04 11:23 | 14.51998 | 121.04140 | 2191 ft | 152 kts | 62° |
| 2026-05-04 11:23 | 14.52931 | 121.05855 | 2705 ft | 179 kts | 62° |
| 2026-05-04 11:24 | 14.55272 | 121.10719 | 3867 ft | 220 kts | 86° |
| 2026-05-04 11:25 | 14.53209 | 121.13979 | 3932 ft | 233 kts | 147° |
| 2026-05-04 11:25 | 14.48836 | 121.16233 | 3915 ft | 227 kts | 151° |
| 2026-05-04 11:26 | 14.45734 | 121.16406 | 3909 ft | 240 kts | 211° |
| 2026-05-04 11:27 | 14.38905 | 121.06293 | 4923 ft | 245 kts | 236° |
| 2026-05-04 11:28 | 14.37961 | 121.04820 | 4934 ft | 245 kts | 236° |
| 2026-05-04 11:28 | 14.37019 | 121.03352 | 4941 ft | 245 kts | 236° |
| 2026-05-04 11:28 | 14.36084 | 121.01897 | 4941 ft | 245 kts | 236° |
| 2026-05-04 11:28 | 14.35141 | 121.00429 | 4946 ft | 244 kts | 236° |
| 2026-05-04 11:29 | 14.34201 | 120.98968 | 4948 ft | 244 kts | 236° |
| 2026-05-04 11:29 | 14.33263 | 120.97509 | 4947 ft | 244 kts | 236° |
| 2026-05-04 11:29 | 14.32317 | 120.96040 | 4952 ft | 245 kts | 236° |
| 2026-05-04 11:29 | 14.31379 | 120.94582 | 4947 ft | 245 kts | 236° |
| 2026-05-04 11:31 | 14.33152 | 120.85197 | 4413 ft | 241 kts | 335° |
| 2026-05-04 11:33 | 14.41632 | 120.85340 | 3003 ft | 179 kts | 60° |
| 2026-05-04 11:33 | 14.42259 | 120.86441 | 2845 ft | 178 kts | 61° |
| 2026-05-04 11:33 | 14.42874 | 120.87547 | 2623 ft | 176 kts | 61° |
| 2026-05-04 11:34 | 14.43475 | 120.88636 | 2413 ft | 175 kts | 61° |
| 2026-05-04 11:34 | 14.44076 | 120.89723 | 2188 ft | 166 kts | 61° |
| 2026-05-04 11:34 | 14.44623 | 120.90709 | 1975 ft | 153 kts | 61° |
| 2026-05-04 11:34 | 14.45135 | 120.91631 | 1821 ft | 144 kts | 62° |
| 2026-05-04 11:35 | 14.45627 | 120.92520 | 1641 ft | 141 kts | 61° |
| 2026-05-04 11:35 | 14.46111 | 120.93391 | 1468 ft | 141 kts | 63° |
| 2026-05-04 11:35 | 14.46598 | 120.94270 | 1290 ft | 140 kts | 62° |
| 2026-05-04 11:35 | 14.47069 | 120.95145 | 1113 ft | 140 kts | 63° |
| 2026-05-04 11:36 | 14.47571 | 120.96009 | 944 ft | 140 kts | 63° |
| 2026-05-04 11:36 | 14.48046 | 120.96877 | 763 ft | 138 kts | 64° |
| 2026-05-04 11:36 | 14.48525 | 120.97739 | 599 ft | 138 kts | 63° |
| 2026-05-04 11:36 | 14.49006 | 120.98608 | 409 ft | 137 kts | 64° |
| 2026-05-04 11:37 | 14.49479 | 120.99453 | 240 ft | 137 kts | 65° |
| 2026-05-04 11:37 | 14.49947 | 121.00305 | 83 ft | 136 kts | 64° |
| 2026-05-04 11:37 | 14.50342 | 121.01018 | 82 ft | 75 kts | 59° |
| 2026-05-04 11:37 | 14.50484 | 121.01279 | 81 ft | 26 kts | 60° |
| 2026-05-04 11:38 | 14.50577 | 121.01441 | 81 ft | 25 kts | 60° |
| 2026-05-04 11:38 | 14.50663 | 121.01596 | 81 ft | 24 kts | 58° |
| 2026-05-04 11:38 | 14.50744 | 121.01698 | 81 ft | 13 kts | 41° |
| 2026-05-04 11:38 | 14.50813 | 121.01756 | 81 ft | 10 kts | 38° |
| 2026-05-04 11:39 | 14.50860 | 121.01789 | 82 ft | 6 kts | 20° |
| 2026-05-04 11:39 | 14.50901 | 121.01778 | 81 ft | 5 kts | 313° |
| 2026-05-04 11:40 | 14.51002 | 121.01554 | 82 ft | 9 kts | 315° |
| 2026-05-04 11:41 | 14.51036 | 121.01519 | 82 ft | 10 kts | 314° |
| 2026-05-04 11:41 | 14.51053 | 121.01501 | 82 ft | 10 kts | 314° |
| 2026-05-04 11:42 | 14.51091 | 121.01360 | 81 ft | 1 kts | 221° |
| 2026-05-04 11:42 | 14.51087 | 121.01356 | 81 ft | 0 kts | 221° |